Time;durP1;ratioP1;P1;durP2;ratioP2;P2;SDS_P1;SDS_P2;PMS_P1;PMS_P2;Temp;Humidity;BMP_temperature;BMP_pressure;BME280_temperature;BME280_humidity;BME280_pressure;Samples;Min_cycle;Max_cycle;Signal;HPM_P1;HPM_P2
2021/01/09 00:02:25;;;;;;;17.80;11.87;;;1.70;99.90;;;;;;5026934;28;20777;-70
2021/01/09 00:04:51;;;;;;;14.93;11.17;;;1.60;99.90;;;;;;5026869;28;21013;-69
2021/01/09 00:07:16;;;;;;;15.43;11.37;;;1.70;99.90;;;;;;5026230;28;20181;-70
2021/01/09 00:09:42;;;;;;;16.73;12.07;;;1.70;99.90;;;;;;5024133;28;20190;-70
2021/01/09 00:12:12;;;;;;;14.53;12.73;;;1.80;99.90;;;;;;5030435;28;20244;-70
2021/01/09 00:14:38;;;;;;;13.03;10.50;;;1.90;99.90;;;;;;5029770;28;20479;-69
2021/01/09 00:17:07;;;;;;;17.57;11.90;;;1.80;99.90;;;;;;5030171;28;20416;-70
2021/01/09 00:19:34;;;;;;;13.77;11.70;;;1.90;99.90;;;;;;5029124;28;20443;-70
2021/01/09 00:21:59;;;;;;;16.30;11.27;;;1.80;99.90;;;;;;5030073;28;20425;-70
2021/01/09 00:24:25;;;;;;;14.70;11.40;;;1.80;99.90;;;;;;5030063;28;20444;-69
2021/01/09 00:26:51;;;;;;;12.13;10.77;;;1.60;99.90;;;;;;5030096;28;20185;-69
2021/01/09 00:29:17;;;;;;;13.30;9.73;;;1.60;99.90;;;;;;5029027;28;20508;-71
2021/01/09 00:31:42;;;;;;;17.57;10.60;;;1.60;99.90;;;;;;5029898;28;20174;-70
2021/01/09 00:34:08;;;;;;;14.60;11.30;;;1.60;99.90;;;;;;5029813;28;20616;-70
2021/01/09 00:36:33;;;;;;;15.80;11.10;;;1.50;99.90;;;;;;5029934;28;20163;-70
2021/01/09 00:38:59;;;;;;;14.77;11.03;;;1.50;99.90;;;;;;5032588;28;20170;-71
2021/01/09 00:41:26;;;;;;;13.17;10.87;;;1.50;99.90;;;;;;5033423;28;20185;-70
2021/01/09 00:43:52;;;;;;;14.20;11.33;;;1.50;99.90;;;;;;5033476;28;20190;-69
2021/01/09 00:46:18;;;;;;;16.80;11.37;;;1.50;99.90;;;;;;5033489;28;20412;-69
2021/01/09 00:48:43;;;;;;;13.57;10.73;;;1.50;99.90;;;;;;5032668;28;20684;-70
2021/01/09 00:51:16;;;;;;;14.83;12.10;;;1.50;99.90;;;;;;5033291;28;20166;-69
2021/01/09 00:53:41;;;;;;;15.50;11.53;;;1.50;99.90;;;;;;5033132;28;20181;-70
2021/01/09 00:56:07;;;;;;;13.77;10.57;;;1.60;99.90;;;;;;5033067;28;20460;-71
2021/01/09 00:58:34;;;;;;;15.80;12.10;;;1.70;99.90;;;;;;5032361;28;20257;-70
2021/01/09 01:01:00;;;;;;;13.13;11.00;;;1.70;99.90;;;;;;5032949;28;20486;-71
2021/01/09 01:03:27;;;;;;;18.37;13.00;;;1.70;99.90;;;;;;5033029;28;20417;-70
2021/01/09 01:05:53;;;;;;;16.57;12.53;;;1.80;99.90;;;;;;5033147;28;20448;-70
2021/01/09 01:08:18;;;;;;;14.80;11.53;;;1.80;99.90;;;;;;5032148;28;20425;-70
2021/01/09 01:10:45;;;;;;;14.20;11.63;;;1.80;99.90;;;;;;5015151;28;20435;-70
2021/01/09 01:13:10;;;;;;;11.67;10.50;;;1.70;99.90;;;;;;5032985;28;20268;-69
2021/01/09 01:15:36;;;;;;;13.37;10.40;;;1.80;99.90;;;;;;5032673;28;20496;-70
2021/01/09 01:18:01;;;;;;;12.87;10.80;;;1.90;99.90;;;;;;5032055;28;20258;-69
2021/01/09 01:20:27;;;;;;;13.97;11.27;;;1.90;99.90;;;;;;5032812;28;20177;-70
2021/01/09 01:22:52;;;;;;;15.43;11.70;;;1.90;99.90;;;;;;5032753;28;20224;-70
2021/01/09 01:25:18;;;;;;;14.47;10.70;;;1.90;99.90;;;;;;5032793;28;20563;-70
2021/01/09 01:27:44;;;;;;;14.10;12.60;;;2.00;99.90;;;;;;5031787;28;20289;-70
2021/01/09 01:30:09;;;;;;;18.33;12.80;;;2.00;99.90;;;;;;5032645;28;20416;-70
2021/01/09 01:32:36;;;;;;;15.33;11.33;;;1.90;99.90;;;;;;5032574;28;20243;-70
2021/01/09 01:35:02;;;;;;;14.37;12.03;;;1.90;99.90;;;;;;5032155;28;20221;-71
2021/01/09 01:37:28;;;;;;;17.80;13.10;;;1.90;99.90;;;;;;5032190;28;20505;-70
2021/01/09 01:39:53;;;;;;;16.10;11.90;;;1.80;99.90;;;;;;5031608;28;20520;-70
2021/01/09 01:42:19;;;;;;;17.10;12.37;;;1.90;99.90;;;;;;5032412;28;20179;-70
2021/01/09 01:44:45;;;;;;;13.17;11.20;;;1.80;99.90;;;;;;5032390;28;20205;-70
2021/01/09 01:47:18;;;;;;;14.60;12.57;;;1.90;99.90;;;;;;5032216;28;20632;-71
2021/01/09 01:49:44;;;;;;;15.27;11.20;;;1.90;99.90;;;;;;5031275;28;20261;-70
2021/01/09 01:52:12;;;;;;;12.23;9.97;;;2.00;99.90;;;;;;5032205;28;20854;-70
2021/01/09 01:54:37;;;;;;;15.20;11.60;;;2.10;99.90;;;;;;5031930;28;20475;-70
2021/01/09 01:57:07;;;;;;;14.17;11.30;;;2.10;99.90;;;;;;5031943;28;20815;-71
2021/01/09 01:59:32;;;;;;;16.60;10.83;;;2.10;99.90;;;;;;5031300;28;20233;-70
2021/01/09 02:02:01;;;;;;;13.20;11.60;;;2.00;99.90;;;;;;5031879;28;20421;-69
2021/01/09 02:04:27;;;;;;;16.97;11.43;;;1.90;99.90;;;;;;5031888;28;20214;-70
2021/01/09 02:06:53;;;;;;;14.20;11.10;;;2.00;99.90;;;;;;5032090;28;20841;-70
2021/01/09 02:09:23;;;;;;;14.67;11.60;;;2.00;99.90;;;;;;5031040;28;20760;-70
2021/01/09 02:12:07;;;;;;;15.90;10.43;;;2.00;99.90;;;;;;5031867;28;20475;-69
2021/01/09 02:14:38;;;;;;;15.50;11.77;;;2.00;99.90;;;;;;5031566;28;20507;-71
2021/01/09 02:17:06;;;;;;;14.97;11.67;;;2.10;99.90;;;;;;5031621;28;20470;-70
2021/01/09 02:19:38;;;;;;;13.10;11.70;;;2.00;99.90;;;;;;5030884;28;20914;-70
2021/01/09 02:22:05;;;;;;;16.00;12.13;;;2.10;99.90;;;;;;5031708;28;20417;-70
2021/01/09 02:24:31;;;;;;;14.60;12.17;;;2.10;99.90;;;;;;5031577;28;20881;-71
2021/01/09 02:26:58;;;;;;;12.93;11.00;;;2.10;99.90;;;;;;5031338;28;20495;-70
2021/01/09 02:29:24;;;;;;;16.20;11.30;;;2.10;99.90;;;;;;5030587;28;20959;-70
2021/01/09 02:31:58;;;;;;;13.37;12.07;;;2.20;99.90;;;;;;5031472;28;20431;-71
2021/01/09 02:34:25;;;;;;;12.03;10.50;;;2.20;99.90;;;;;;5031107;28;20469;-70
2021/01/09 02:36:51;;;;;;;17.77;13.80;;;2.10;99.90;;;;;;5031537;28;20445;-70
2021/01/09 02:39:18;;;;;;;13.50;10.50;;;2.20;99.90;;;;;;5030500;28;20949;-69
2021/01/09 02:41:46;;;;;;;16.47;11.80;;;2.10;99.90;;;;;;5031417;28;20444;-69
2021/01/09 02:44:12;;;;;;;16.23;12.80;;;2.20;99.90;;;;;;5031256;28;20448;-70
2021/01/09 02:46:37;;;;;;;15.30;12.47;;;2.20;99.90;;;;;;5031247;28;20413;-70
2021/01/09 02:49:07;;;;;;;13.13;10.63;;;2.20;99.90;;;;;;5030457;28;20583;-70
2021/01/09 02:51:33;;;;;;;17.07;11.37;;;2.20;99.90;;;;;;5031098;28;20204;-69
2021/01/09 02:53:59;;;;;;;18.80;13.10;;;2.10;99.90;;;;;;5030817;28;20476;-70
2021/01/09 02:56:24;;;;;;;14.80;10.50;;;2.10;99.90;;;;;;5030924;28;20504;-71
2021/01/09 02:58:50;;;;;;;14.20;11.90;;;2.10;99.90;;;;;;5030128;28;20209;-70
2021/01/09 03:01:15;;;;;;;13.80;10.73;;;2.20;99.90;;;;;;5030207;28;20634;-69
2021/01/09 03:03:41;;;;;;;16.97;12.37;;;2.20;99.90;;;;;;5030684;28;20511;-70
2021/01/09 03:06:07;;;;;;;15.50;11.70;;;2.20;99.90;;;;;;5030778;28;20186;-70
2021/01/09 03:08:33;;;;;;;13.90;11.90;;;2.20;99.90;;;;;;5030113;28;20178;-70
2021/01/09 03:10:59;;;;;;;15.27;12.90;;;2.20;99.90;;;;;;5030400;28;20480;-70
2021/01/09 03:13:24;;;;;;;15.80;12.50;;;2.20;99.90;;;;;;5030658;28;20185;-70
2021/01/09 03:15:50;;;;;;;12.97;11.30;;;2.20;99.90;;;;;;5030570;28;20267;-70
2021/01/09 03:18:15;;;;;;;14.33;11.50;;;2.20;99.90;;;;;;5029907;28;20591;-70
2021/01/09 03:20:41;;;;;;;13.37;11.50;;;2.10;99.90;;;;;;5030641;28;20660;-70
2021/01/09 03:23:06;;;;;;;17.27;13.03;;;2.20;99.90;;;;;;5030718;28;20178;-70
2021/01/09 03:25:32;;;;;;;15.13;13.07;;;2.20;99.90;;;;;;5030493;28;20225;-70
2021/01/09 03:27:57;;;;;;;14.60;13.10;;;2.20;99.90;;;;;;5029838;28;20257;-70
2021/01/09 03:30:23;;;;;;;15.37;12.60;;;2.20;99.90;;;;;;5030501;28;20323;-70
2021/01/09 03:32:49;;;;;;;17.57;12.90;;;2.20;99.90;;;;;;5030473;28;20604;-70
2021/01/09 03:35:15;;;;;;;18.17;14.03;;;2.20;99.90;;;;;;5030103;28;20212;-70
2021/01/09 03:37:40;;;;;;;20.00;14.07;;;2.20;99.90;;;;;;5029715;28;20224;-70
2021/01/09 03:40:06;;;;;;;18.00;12.43;;;2.20;99.90;;;;;;5030507;28;20208;-70
2021/01/09 03:42:33;;;;;;;15.53;12.77;;;2.20;99.90;;;;;;5030490;28;20174;-70
2021/01/09 03:44:58;;;;;;;17.50;14.10;;;2.20;99.90;;;;;;5030498;28;20449;-70
2021/01/09 03:47:24;;;;;;;19.13;13.87;;;2.20;99.90;;;;;;5012847;28;20478;-70
2021/01/09 03:49:50;;;;;;;18.97;13.73;;;2.20;99.90;;;;;;5029572;28;20182;-70
2021/01/09 03:52:15;;;;;;;21.23;15.93;;;2.20;99.90;;;;;;5030299;28;20619;-71
2021/01/09 03:54:41;;;;;;;19.27;14.47;;;2.20;99.90;;;;;;5030296;28;20678;-70
2021/01/09 03:57:06;;;;;;;16.77;14.13;;;2.20;99.90;;;;;;5030313;28;20253;-69
2021/01/09 03:59:32;;;;;;;21.77;15.53;;;2.30;99.90;;;;;;5029541;28;20170;-70
2021/01/09 04:01:58;;;;;;;20.67;14.60;;;2.40;99.90;;;;;;5030220;28;20162;-70
2021/01/09 04:04:23;;;;;;;18.70;14.17;;;2.30;99.90;;;;;;5030146;28;20514;-71
2021/01/09 04:06:49;;;;;;;21.27;15.03;;;2.30;99.90;;;;;;5030303;28;20424;-70
2021/01/09 04:09:14;;;;;;;20.10;15.50;;;2.20;99.90;;;;;;5011533;28;20179;-70
2021/01/09 04:11:40;;;;;;;19.23;15.57;;;2.10;99.90;;;;;;5031637;28;20178;-70
2021/01/09 04:14:06;;;;;;;20.40;15.67;;;2.10;99.90;;;;;;5033833;28;20672;-70
2021/01/09 04:16:36;;;;;;;24.63;17.10;;;2.20;99.90;;;;;;5034007;28;20170;-70
2021/01/09 04:19:02;;;;;;;18.80;15.93;;;2.20;99.90;;;;;;5033161;28;20436;-70
2021/01/09 04:21:27;;;;;;;22.07;15.20;;;2.20;99.90;;;;;;5033779;28;20421;-70
2021/01/09 04:23:53;;;;;;;20.37;16.10;;;2.20;99.90;;;;;;5033814;28;20960;-69
2021/01/09 04:26:18;;;;;;;24.57;16.67;;;2.10;99.90;;;;;;5033710;28;20698;-71
2021/01/09 04:28:44;;;;;;;24.97;16.33;;;2.10;99.90;;;;;;5032920;28;20176;-70
2021/01/09 04:31:13;;;;;;;19.67;16.97;;;2.20;99.90;;;;;;5033761;28;20188;-70
2021/01/09 04:33:39;;;;;;;24.67;17.87;;;2.20;99.90;;;;;;5033433;28;20177;-69
2021/01/09 04:36:05;;;;;;;20.40;15.77;;;2.30;99.90;;;;;;5033458;28;20468;-70
2021/01/09 04:38:30;;;;;;;25.40;16.67;;;2.30;99.90;;;;;;5032718;28;20178;-70
2021/01/09 04:40:58;;;;;;;23.63;16.40;;;2.20;99.90;;;;;;5033507;28;20179;-70
2021/01/09 04:43:24;;;;;;;23.70;16.10;;;2.20;99.90;;;;;;5033462;28;20201;-70
2021/01/09 04:45:50;;;;;;;23.43;17.00;;;2.20;99.90;;;;;;5033386;28;20440;-70
2021/01/09 04:48:16;;;;;;;21.00;16.10;;;2.20;99.90;;;;;;5032789;28;20805;-70
2021/01/09 04:50:42;;;;;;;20.73;14.57;;;2.10;99.90;;;;;;5033511;28;20217;-70
2021/01/09 04:53:10;;;;;;;21.40;16.53;;;2.10;99.90;;;;;;5033279;28;20449;-70
2021/01/09 04:55:35;;;;;;;22.50;16.03;;;2.00;99.90;;;;;;5033037;28;20465;-69
2021/01/09 04:58:02;;;;;;;22.43;15.73;;;2.00;99.90;;;;;;5032339;28;20453;-70
2021/01/09 05:00:28;;;;;;;21.30;16.13;;;2.00;99.90;;;;;;5015435;28;20170;-70
2021/01/09 05:02:54;;;;;;;20.50;15.03;;;2.10;99.90;;;;;;5033175;28;20417;-70
2021/01/09 05:05:20;;;;;;;20.57;15.30;;;2.10;99.90;;;;;;5032852;28;20205;-70
2021/01/09 05:07:45;;;;;;;21.70;16.37;;;2.10;99.90;;;;;;5032177;28;20174;-70
2021/01/09 05:10:11;;;;;;;21.37;16.60;;;2.10;99.90;;;;;;5033068;28;20449;-70
2021/01/09 05:12:40;;;;;;;24.13;16.30;;;2.00;99.90;;;;;;5033041;28;20182;-70
2021/01/09 05:15:06;;;;;;;25.10;17.77;;;1.90;99.90;;;;;;5032781;28;20566;-70
2021/01/09 05:17:37;;;;;;;28.00;18.83;;;1.90;99.90;;;;;;5032591;28;20423;-70
2021/01/09 05:20:07;;;;;;;26.37;17.87;;;1.90;99.90;;;;;;5032693;28;20453;-69
2021/01/09 05:22:38;;;;;;;24.00;18.40;;;1.90;99.90;;;;;;5032388;28;20420;-70
2021/01/09 05:25:04;;;;;;;24.17;18.03;;;2.00;99.90;;;;;;5032603;28;20441;-70
2021/01/09 05:27:30;;;;;;;22.57;17.33;;;2.20;99.90;;;;;;5032514;28;20416;-70
2021/01/09 05:29:56;;;;;;;25.70;18.57;;;2.20;99.90;;;;;;5032151;28;20417;-71
2021/01/09 05:32:23;;;;;;;22.27;16.17;;;2.10;99.90;;;;;;5032594;28;20174;-70
2021/01/09 05:34:53;;;;;;;24.50;16.30;;;2.10;99.90;;;;;;5032951;28;20502;-70
2021/01/09 05:37:26;;;;;;;19.70;15.33;;;1.90;99.90;;;;;;5032671;28;20952;-70
2021/01/09 05:39:58;;;;;;;21.80;16.13;;;1.90;99.90;;;;;;5031897;28;20947;-70
2021/01/09 05:42:26;;;;;;;24.77;17.83;;;2.00;99.90;;;;;;5032514;28;20421;-71
2021/01/09 05:44:57;;;;;;;27.10;17.43;;;2.00;99.90;;;;;;5032426;28;20483;-70
2021/01/09 05:47:24;;;;;;;25.77;18.40;;;2.00;99.90;;;;;;5032245;28;20429;-70
2021/01/09 05:49:51;;;;;;;24.00;17.00;;;2.00;99.90;;;;;;5031560;28;20421;-70
2021/01/09 05:52:17;;;;;;;23.90;16.10;;;2.00;99.90;;;;;;5032177;28;20417;-70
2021/01/09 05:54:43;;;;;;;24.77;18.13;;;2.10;99.90;;;;;;5032079;28;20537;-70
2021/01/09 05:57:16;;;;;;;26.47;17.93;;;2.10;99.90;;;;;;5032019;28;20530;-70
2021/01/09 05:59:42;;;;;;;29.73;19.40;;;2.20;99.90;;;;;;5031266;28;20413;-70
2021/01/09 06:02:09;;;;;;;29.83;19.90;;;2.10;99.90;;;;;;5030254;28;20413;-71
2021/01/09 06:04:42;;;;;;;25.40;16.87;;;2.00;99.90;;;;;;5032234;28;21019;-71
2021/01/09 06:07:24;;;;;;;30.17;19.27;;;2.00;99.90;;;;;;5031959;28;20504;-70
2021/01/09 06:09:57;;;;;;;24.17;17.33;;;2.00;99.90;;;;;;5031332;28;20436;-71
2021/01/09 06:12:22;;;;;;;24.83;17.83;;;2.10;99.90;;;;;;5032093;28;20412;-71
2021/01/09 06:14:49;;;;;;;30.73;19.53;;;2.10;99.90;;;;;;5031591;28;20456;-70
2021/01/09 06:17:16;;;;;;;31.37;19.77;;;2.10;99.90;;;;;;5031757;28;20567;-70
2021/01/09 06:19:42;;;;;;;23.43;18.90;;;2.10;99.90;;;;;;5030877;28;20420;-71
2021/01/09 06:22:08;;;;;;;25.80;18.67;;;2.10;99.90;;;;;;5031577;28;20413;-70
2021/01/09 06:24:34;;;;;;;29.13;17.30;;;2.10;99.90;;;;;;5031574;28;20332;-70
2021/01/09 06:27:00;;;;;;;25.33;18.70;;;2.10;99.90;;;;;;5031432;28;20312;-70
2021/01/09 06:29:27;;;;;;;33.97;20.43;;;2.10;99.90;;;;;;5030568;28;20421;-70
2021/01/09 06:31:58;;;;;;;26.27;19.30;;;2.00;99.90;;;;;;5031546;28;20424;-71
2021/01/09 06:34:26;;;;;;;30.97;18.90;;;2.10;99.90;;;;;;5030481;28;20469;-70
2021/01/09 06:36:59;;;;;;;32.57;20.67;;;2.10;99.90;;;;;;5031077;28;20417;-70
2021/01/09 06:39:27;;;;;;;29.90;20.47;;;2.00;99.90;;;;;;5030420;28;20850;-70
2021/01/09 06:41:56;;;;;;;22.37;18.20;;;2.00;99.90;;;;;;5031380;28;20439;-71
2021/01/09 06:44:25;;;;;;;30.20;19.50;;;2.00;99.90;;;;;;5031124;28;20456;-70
2021/01/09 06:46:54;;;;;;;33.93;22.73;;;2.00;99.90;;;;;;5031218;28;20405;-70
2021/01/09 06:49:22;;;;;;;24.50;19.23;;;2.00;99.90;;;;;;5030202;28;20421;-70
2021/01/09 06:51:57;;;;;;;35.83;21.93;;;2.00;99.90;;;;;;5031076;28;20413;-71
2021/01/09 06:54:28;;;;;;;33.17;22.20;;;2.00;99.90;;;;;;5030984;28;20894;-70
2021/01/09 06:57:02;;;;;;;35.87;21.77;;;2.00;99.90;;;;;;5031053;28;20420;-71
2021/01/09 06:59:38;;;;;;;29.60;20.47;;;2.00;99.90;;;;;;5030060;28;20408;-71
2021/01/09 07:02:26;;;;;;;33.30;21.37;;;2.00;99.90;;;;;;5029754;28;20416;-70
2021/01/09 07:04:52;;;;;;;32.63;21.77;;;2.10;99.90;;;;;;5030751;28;20432;-71
2021/01/09 07:07:53;;;;;;;31.17;18.83;;;2.10;99.90;;;;;;5030905;28;20786;-71
2021/01/09 07:10:26;;;;;;;32.93;20.57;;;2.10;99.90;;;;;;5005451;28;20186;-70
2021/01/09 07:12:56;;;;;;;31.80;23.10;;;2.00;99.90;;;;;;5030759;28;20417;-71
2021/01/09 07:15:23;;;;;;;42.07;25.47;;;2.10;99.90;;;;;;5030387;28;20460;-70
2021/01/09 07:17:57;;;;;;;33.67;24.17;;;2.10;99.90;;;;;;5029782;28;20421;-71
2021/01/09 07:20:27;;;;;;;35.80;23.17;;;2.10;99.90;;;;;;5030617;28;20827;-70
2021/01/09 07:22:58;;;;;;;36.17;23.07;;;2.10;99.90;;;;;;5030575;28;20502;-70
2021/01/09 07:25:32;;;;;;;33.47;21.93;;;2.10;99.90;;;;;;5030535;28;20495;-70
2021/01/09 07:27:59;;;;;;;33.30;21.67;;;2.10;99.90;;;;;;5029749;28;20431;-70
2021/01/09 07:30:29;;;;;;;30.70;21.27;;;2.10;99.90;;;;;;5030498;28;20482;-70
2021/01/09 07:32:55;;;;;;;36.20;23.60;;;2.00;99.90;;;;;;5030332;28;20953;-70
2021/01/09 07:35:31;;;;;;;35.10;23.33;;;2.00;99.90;;;;;;5030158;28;20472;-70
2021/01/09 07:38:02;;;;;;;34.27;21.70;;;2.00;99.90;;;;;;5029680;28;20790;-71
2021/01/09 07:40:33;;;;;;;36.40;22.77;;;2.00;99.90;;;;;;5030643;28;20471;-70
2021/01/09 07:42:59;;;;;;;35.17;25.40;;;1.90;99.90;;;;;;5030636;28;20444;-70
2021/01/09 07:45:31;;;;;;;36.63;23.70;;;1.90;99.90;;;;;;5030289;28;20491;-70
2021/01/09 07:47:57;;;;;;;38.43;25.43;;;2.00;99.90;;;;;;5029235;28;20416;-70
2021/01/09 07:50:23;;;;;;;35.07;24.10;;;2.00;99.90;;;;;;5030169;28;20422;-70
2021/01/09 07:53:04;;;;;;;36.67;24.73;;;2.10;99.90;;;;;;5030049;28;20429;-71
2021/01/09 07:55:44;;;;;;;38.33;23.63;;;2.00;99.90;;;;;;5029915;28;20209;-71
2021/01/09 07:58:11;;;;;;;36.73;22.13;;;2.00;99.90;;;;;;5029451;28;20426;-70
2021/01/09 08:00:40;;;;;;;35.50;23.27;;;2.00;99.90;;;;;;5028910;28;20421;-70
2021/01/09 08:03:06;;;;;;;34.77;21.80;;;2.10;99.90;;;;;;5029890;28;20421;-70
2021/01/09 08:05:31;;;;;;;30.97;22.27;;;2.10;99.90;;;;;;5029893;28;20862;-69
2021/01/09 08:07:58;;;;;;;31.57;22.40;;;2.20;99.90;;;;;;5029266;28;20167;-70
2021/01/09 08:10:25;;;;;;;35.80;22.13;;;2.10;99.90;;;;;;5029682;28;20174;-71
2021/01/09 08:12:58;;;;;;;38.27;24.47;;;2.10;99.90;;;;;;5029931;28;20424;-70
2021/01/09 08:15:25;;;;;;;34.80;23.33;;;2.10;99.90;;;;;;5029595;28;20472;-70
2021/01/09 08:17:51;;;;;;;41.00;23.47;;;2.10;99.90;;;;;;5029127;28;20474;-70
2021/01/09 08:20:18;;;;;;;37.37;25.10;;;2.10;99.90;;;;;;5029922;28;20414;-70
2021/01/09 08:22:58;;;;;;;32.90;22.90;;;2.10;99.90;;;;;;5012149;28;20528;-70
2021/01/09 08:25:26;;;;;;;29.80;20.83;;;2.10;99.90;;;;;;5029657;28;20941;-70
2021/01/09 08:27:57;;;;;;;30.37;21.50;;;2.00;99.90;;;;;;5029115;28;20462;-70
2021/01/09 08:30:31;;;;;;;33.37;21.23;;;2.00;99.90;;;;;;5030052;28;20413;-70
2021/01/09 08:33:10;;;;;;;34.07;21.63;;;1.90;99.90;;;;;;5029893;28;20425;-70
2021/01/09 08:35:45;;;;;;;36.03;22.43;;;1.90;99.90;;;;;;5029738;28;20507;-70
2021/01/09 08:38:11;;;;;;;33.80;22.00;;;2.00;99.90;;;;;;5029289;28;20412;-70
2021/01/09 08:40:36;;;;;;;32.63;22.50;;;2.00;99.90;;;;;;5029965;28;20428;-70
2021/01/09 08:43:07;;;;;;;31.10;21.00;;;2.00;99.90;;;;;;5029970;28;20183;-71
2021/01/09 08:45:57;;;;;;;29.77;20.80;;;2.00;99.90;;;;;;5030094;28;20280;-70
2021/01/09 08:48:27;;;;;;;33.57;22.50;;;2.10;99.90;;;;;;5029391;28;20413;-71
2021/01/09 08:50:58;;;;;;;34.37;21.67;;;2.10;99.90;;;;;;5030076;28;20424;-70
2021/01/09 08:53:30;;;;;;;37.00;22.60;;;2.20;99.90;;;;;;5029890;28;20810;-70
2021/01/09 08:56:04;;;;;;;32.43;22.13;;;2.10;99.90;;;;;;5029847;28;20899;-71
2021/01/09 08:58:31;;;;;;;29.40;19.37;;;2.20;99.90;;;;;;5030211;28;20835;-70
2021/01/09 09:00:58;;;;;;;32.27;21.83;;;2.10;99.90;;;;;;5033542;28;20425;-70
2021/01/09 09:03:24;;;;;;;31.60;20.77;;;2.20;99.90;;;;;;5015846;28;20421;-71
2021/01/09 09:05:51;;;;;;;32.63;20.77;;;2.40;99.90;;;;;;5033676;28;20816;-70
2021/01/09 09:08:17;;;;;;;30.13;20.70;;;2.40;99.90;;;;;;5032724;28;20466;-70
2021/01/09 09:10:45;;;;;;;32.20;19.37;;;2.30;99.90;;;;;;5033279;28;20507;-70
2021/01/09 09:13:29;;;;;;;27.97;19.90;;;2.20;99.90;;;;;;5033294;28;20417;-71
2021/01/09 09:15:55;;;;;;;36.00;21.60;;;2.20;99.90;;;;;;5032934;28;20494;-70
2021/01/09 09:18:20;;;;;;;31.80;22.10;;;2.30;99.90;;;;;;5032170;28;20420;-70
2021/01/09 09:20:49;;;;;;;32.67;21.57;;;2.30;99.90;;;;;;5015241;28;20174;-70
2021/01/09 09:23:15;;;;;;;30.53;21.30;;;2.50;99.90;;;;;;5015141;28;20175;-70
2021/01/09 09:25:41;;;;;;;33.30;21.90;;;2.50;99.90;;;;;;5032943;28;20528;-70
2021/01/09 09:28:07;;;;;;;30.97;20.83;;;2.50;99.90;;;;;;5032083;28;20502;-70
2021/01/09 09:30:32;;;;;;;30.90;19.13;;;2.50;99.90;;;;;;5032683;28;20513;-70
2021/01/09 09:33:11;;;;;;;30.70;19.73;;;2.60;99.90;;;;;;5032792;28;20252;-70
2021/01/09 09:35:37;;;;;;;30.40;20.10;;;2.60;99.90;;;;;;5032458;28;20222;-70
2021/01/09 09:38:03;;;;;;;28.87;17.77;;;2.70;99.90;;;;;;5031770;28;20456;-70
2021/01/09 09:40:31;;;;;;;24.67;17.47;;;2.90;99.90;;;;;;5032647;28;20839;-71
2021/01/09 09:43:16;;;;;;;32.20;20.07;;;2.70;99.90;;;;;;5032500;28;20253;-70
2021/01/09 09:45:55;;;;;;;29.17;19.67;;;2.50;99.90;;;;;;5014533;28;20532;-70
2021/01/09 09:48:30;;;;;;;24.77;17.23;;;2.50;99.90;;;;;;5031679;28;20416;-70
2021/01/09 09:51:06;;;;;;;30.03;20.10;;;2.60;99.90;;;;;;5032486;28;20424;-70
2021/01/09 09:53:35;;;;;;;29.57;19.57;;;2.70;99.90;;;;;;5032301;28;20424;-70
2021/01/09 09:56:23;;;;;;;25.53;18.83;;;2.60;99.90;;;;;;5032164;28;20483;-70
2021/01/09 09:59:03;;;;;;;31.23;19.67;;;2.60;99.90;;;;;;5031616;28;20423;-69
2021/01/09 10:01:31;;;;;;;28.10;17.80;;;2.60;99.90;;;;;;5032078;28;20779;-69
2021/01/09 10:03:58;;;;;;;26.67;16.33;;;2.60;99.90;;;;;;5032044;28;20448;-69
2021/01/09 10:06:34;;;;;;;25.47;15.90;;;2.50;99.90;;;;;;5032037;28;20499;-70
2021/01/09 10:09:08;;;;;;;23.60;16.07;;;2.50;99.90;;;;;;5031203;28;20479;-69
2021/01/09 10:11:34;;;;;;;24.30;17.73;;;2.50;99.90;;;;;;5014241;28;20428;-70
2021/01/09 10:14:04;;;;;;;24.47;15.23;;;2.60;99.90;;;;;;5031790;28;20456;-69
2021/01/09 10:16:30;;;;;;;29.73;18.20;;;2.80;99.90;;;;;;5031829;28;20321;-69
2021/01/09 10:18:55;;;;;;;22.40;17.83;;;2.80;99.90;;;;;;5031199;28;20793;-69
2021/01/09 10:21:26;;;;;;;22.37;15.90;;;2.90;99.90;;;;;;5031739;28;20424;-70
2021/01/09 10:23:51;;;;;;;24.23;15.93;;;2.90;99.90;;;;;;5031738;28;20652;-69
2021/01/09 10:26:31;;;;;;;22.23;15.90;;;2.80;99.90;;;;;;5031720;28;20421;-70
2021/01/09 10:28:57;;;;;;;21.47;14.70;;;2.90;99.90;;;;;;5031108;28;20389;-69
2021/01/09 10:31:38;;;;;;;19.17;14.17;;;2.80;99.90;;;;;;5031654;28;20425;-70
2021/01/09 10:34:05;;;;;;;20.03;14.20;;;2.90;99.90;;;;;;5031393;28;20464;-69
2021/01/09 10:36:34;;;;;;;16.40;11.93;;;3.00;99.90;;;;;;5031431;28;20468;-70
2021/01/09 10:39:00;;;;;;;21.70;14.20;;;3.40;99.90;;;;;;5030656;28;20922;-70
2021/01/09 10:41:27;;;;;;;19.87;14.60;;;3.50;99.90;;;;;;5031465;28;20503;-69
2021/01/09 10:43:53;;;;;;;21.30;14.63;;;3.60;99.90;;;;;;5031296;28;20954;-70
2021/01/09 10:46:21;;;;;;;17.23;12.83;;;3.50;99.90;;;;;;5031396;28;20436;-69
2021/01/09 10:48:47;;;;;;;20.60;13.97;;;3.40;99.90;;;;;;5030557;28;20816;-70
2021/01/09 10:51:17;;;;;;;17.00;12.23;;;3.50;99.90;;;;;;5031176;28;20423;-70
2021/01/09 10:53:43;;;;;;;16.40;12.20;;;3.50;99.90;;;;;;5031025;28;20425;-69
2021/01/09 10:56:09;;;;;;;16.20;11.13;;;3.50;99.90;;;;;;5031127;28;20469;-70
2021/01/09 10:58:35;;;;;;;20.03;13.30;;;3.40;99.90;;;;;;5030412;28;20206;-69
2021/01/09 11:01:01;;;;;;;21.47;13.70;;;3.30;99.90;;;;;;5031371;28;20198;-70
2021/01/09 11:03:26;;;;;;;18.70;14.87;;;3.30;99.90;;;;;;5030926;28;20460;-70
2021/01/09 11:05:52;;;;;;;15.20;12.37;;;3.50;99.90;;;;;;5030969;28;20201;-70
2021/01/09 11:08:17;;;;;;;20.10;13.53;;;3.70;99.90;;;;;;5030283;28;20210;-70
2021/01/09 11:10:43;;;;;;;21.50;14.87;;;3.60;99.90;;;;;;5031084;28;20178;-70
2021/01/09 11:13:08;;;;;;;19.83;15.30;;;3.50;99.90;;;;;;5030945;28;20189;-69
2021/01/09 11:15:35;;;;;;;22.50;14.67;;;3.20;99.90;;;;;;5030788;28;20217;-70
2021/01/09 11:18:00;;;;;;;23.63;16.10;;;3.10;99.90;;;;;;5029713;28;20298;-70
2021/01/09 11:20:26;;;;;;;19.00;14.33;;;3.20;99.90;;;;;;5030908;28;20913;-70
2021/01/09 11:22:51;;;;;;;20.70;14.20;;;3.20;99.90;;;;;;5030690;28;20174;-70
2021/01/09 11:25:17;;;;;;;20.30;15.20;;;3.20;99.90;;;;;;5030917;28;20194;-70
2021/01/09 11:27:43;;;;;;;21.40;15.20;;;3.40;99.90;;;;;;5029919;28;20186;-70
2021/01/09 11:30:09;;;;;;;19.47;14.67;;;3.80;99.90;;;;;;5030848;28;20659;-70
2021/01/09 11:32:34;;;;;;;19.80;13.77;;;4.20;99.90;;;;;;5030646;28;20171;-67
2021/01/09 11:35:02;;;;;;;20.90;15.60;;;4.50;99.90;;;;;;5030910;28;20479;-70
2021/01/09 11:37:27;;;;;;;22.13;14.27;;;4.80;99.90;;;;;;5030435;28;20636;-70
2021/01/09 11:39:54;;;;;;;16.10;13.00;;;6.00;99.90;;;;;;5029769;28;20516;-70
2021/01/09 11:42:20;;;;;;;20.53;15.90;;;7.00;99.90;;;;;;5030422;28;20170;-70
2021/01/09 11:44:46;;;;;;;19.80;15.53;;;6.90;99.90;;;;;;5030453;28;20444;-71
2021/01/09 11:47:12;;;;;;;16.13;13.13;;;7.10;99.90;;;;;;5012781;28;20812;-70
2021/01/09 11:49:37;;;;;;;16.03;12.53;;;7.20;99.90;;;;;;5029500;28;20182;-70
2021/01/09 11:52:03;;;;;;;16.63;13.53;;;7.20;99.90;;;;;;5030653;28;20706;-69
2021/01/09 11:54:28;;;;;;;19.20;13.83;;;8.90;99.90;;;;;;5030318;28;20255;-70
2021/01/09 11:56:58;;;;;;;18.57;14.43;;;9.40;99.90;;;;;;5030472;28;20185;-70
2021/01/09 11:59:23;;;;;;;14.83;12.30;;;9.20;99.90;;;;;;5029959;28;20167;-69
2021/01/09 12:01:49;;;;;;;12.03;10.73;;;10.60;99.90;;;;;;5030379;28;20412;-70
2021/01/09 12:04:14;;;;;;;12.83;11.47;;;12.30;97.20;;;;;;5030357;28;20197;-71
2021/01/09 12:06:40;;;;;;;14.20;12.03;;;12.80;92.30;;;;;;5030913;28;20182;-69
2021/01/09 12:09:05;;;;;;;12.00;10.60;;;11.70;92.60;;;;;;5029967;28;20187;-70
2021/01/09 12:11:34;;;;;;;13.43;12.00;;;11.60;92.90;;;;;;5012613;28;20178;-70
2021/01/09 12:14:00;;;;;;;13.60;11.47;;;11.80;92.20;;;;;;5030571;28;20200;-70
2021/01/09 12:16:29;;;;;;;13.83;12.17;;;11.60;92.40;;;;;;5030496;28;20551;-70
2021/01/09 12:18:55;;;;;;;14.47;11.77;;;9.80;94.70;;;;;;5029466;28;20167;-70
2021/01/09 12:21:22;;;;;;;13.20;11.07;;;8.40;98.60;;;;;;5012063;28;20424;-70
2021/01/09 12:23:47;;;;;;;12.73;10.50;;;7.00;99.90;;;;;;5012229;28;20166;-70
2021/01/09 12:26:17;;;;;;;12.17;9.83;;;6.40;99.90;;;;;;5030160;28;20820;-69
2021/01/09 12:28:43;;;;;;;13.17;10.30;;;6.20;99.90;;;;;;5029429;28;20228;-70
2021/01/09 12:31:08;;;;;;;13.30;10.27;;;6.20;99.90;;;;;;5030251;28;20922;-70
2021/01/09 12:33:34;;;;;;;11.40;10.07;;;6.10;99.90;;;;;;5031012;28;20213;-69
2021/01/09 12:35:59;;;;;;;11.47;9.67;;;6.00;99.90;;;;;;5033670;28;20308;-69
2021/01/09 12:38:25;;;;;;;11.07;9.10;;;6.00;99.90;;;;;;5032880;28;20308;-71
2021/01/09 12:40:50;;;;;;;11.80;9.60;;;6.80;99.90;;;;;;5033602;28;20184;-69